Time;durP1;ratioP1;P1;durP2;ratioP2;P2;SDS_P1;SDS_P2;PMS_P1;PMS_P2;Temp;Humidity;BMP_temperature;BMP_pressure;BME280_temperature;BME280_humidity;BME280_pressure;Samples;Min_cycle;Max_cycle;Signal;HPM_P1;HPM_P2
2024/04/20 00:00:48;;;;;;;7.28;1.85;;;;;;;;;;5384806;26;20004;-52
2024/04/20 00:03:13;;;;;;;9.73;2.00;;;;;;;;;;5384974;26;20289;-52
2024/04/20 00:05:38;;;;;;;6.88;1.63;;;;;;;;;;5384725;26;20003;-51
2024/04/20 00:08:04;;;;;;;9.07;2.17;;;;;;;;;;5384751;26;19992;-53
2024/04/20 00:10:30;;;;;;;8.23;2.17;;;;;;;;;;5354067;26;20004;-52
2024/04/20 00:12:57;;;;;;;5.60;1.88;;;;;;;;;;5384498;26;20000;-51
2024/04/20 00:15:22;;;;;;;8.00;1.98;;;;;;;;;;5353484;26;20011;-50
2024/04/20 00:17:49;;;;;;;11.80;1.95;;;;;;;;;;5384671;26;20000;-51
2024/04/20 00:20:15;;;;;;;9.57;2.15;;;;;;;;;;5384336;26;19997;-52
2024/04/20 00:22:42;;;;;;;7.80;2.30;;;;;;;;;;5353668;26;20096;-51
2024/04/20 00:25:08;;;;;;;9.55;2.22;;;;;;;;;;5384108;26;20000;-50
2024/04/20 00:27:34;;;;;;;12.85;2.40;;;;;;;;;;5383969;26;20008;-52
2024/04/20 00:30:01;;;;;;;9.73;2.05;;;;;;;;;;5384321;26;20032;-51
2024/04/20 00:32:26;;;;;;;10.70;2.45;;;;;;;;;;5383884;26;19996;-53
2024/04/20 00:34:52;;;;;;;7.60;2.10;;;;;;;;;;5353238;26;20011;-53
2024/04/20 00:37:17;;;;;;;11.00;1.92;;;;;;;;;;5384353;26;20012;-52
2024/04/20 00:39:44;;;;;;;7.05;1.95;;;;;;;;;;5384539;26;19996;-51
2024/04/20 00:42:09;;;;;;;8.00;2.22;;;;;;;;;;5383756;26;20005;-52
2024/04/20 00:44:35;;;;;;;10.48;2.20;;;;;;;;;;5383746;26;20398;-52
2024/04/20 00:47:03;;;;;;;5.63;1.90;;;;;;;;;;5353082;26;20036;-53
2024/04/20 00:49:32;;;;;;;10.57;2.28;;;;;;;;;;5383881;26;20409;-53
2024/04/20 00:52:00;;;;;;;8.93;2.13;;;;;;;;;;5383990;26;20413;-51
2024/04/20 00:54:26;;;;;;;8.18;2.10;;;;;;;;;;5383977;26;20398;-52
2024/04/20 00:56:57;;;;;;;8.95;2.20;;;;;;;;;;5353697;26;20000;-52
2024/04/20 00:59:24;;;;;;;9.10;2.13;;;;;;;;;;5384425;26;20075;-50
2024/04/20 01:01:50;;;;;;;11.68;2.40;;;;;;;;;;5384185;26;20490;-50
2024/04/20 01:04:15;;;;;;;9.93;2.67;;;;;;;;;;5383705;26;20008;-51
2024/04/20 01:06:40;;;;;;;6.10;2.00;;;;;;;;;;5383642;26;20274;-51
2024/04/20 01:09:07;;;;;;;9.45;2.05;;;;;;;;;;5383719;26;20003;-52
2024/04/20 01:11:33;;;;;;;11.48;2.67;;;;;;;;;;5348646;26;20001;-51
2024/04/20 01:14:02;;;;;;;9.25;2.45;;;;;;;;;;5371147;26;20328;-51
2024/04/20 01:16:29;;;;;;;8.68;2.20;;;;;;;;;;5383385;26;20000;-50
2024/04/20 01:18:54;;;;;;;8.55;2.30;;;;;;;;;;5384072;26;20010;-52
2024/04/20 01:21:20;;;;;;;8.05;2.20;;;;;;;;;;5383545;26;19996;-51
2024/04/20 01:23:48;;;;;;;12.40;2.70;;;;;;;;;;5352449;26;20014;-50
2024/04/20 01:26:15;;;;;;;5.95;2.22;;;;;;;;;;5352799;26;20000;-50
2024/04/20 01:28:41;;;;;;;9.65;2.20;;;;;;;;;;5384642;26;19996;-50
2024/04/20 01:31:08;;;;;;;9.55;2.38;;;;;;;;;;5383897;26;20000;-51
2024/04/20 01:33:34;;;;;;;9.15;2.25;;;;;;;;;;5383645;26;19996;-52
2024/04/20 01:36:01;;;;;;;7.60;2.13;;;;;;;;;;5383551;26;19996;-51
2024/04/20 01:38:27;;;;;;;7.63;1.95;;;;;;;;;;5383372;26;19996;-51
2024/04/20 01:40:53;;;;;;;6.75;2.00;;;;;;;;;;5383109;26;20100;-53
2024/04/20 01:43:20;;;;;;;9.45;1.98;;;;;;;;;;5383641;26;19996;-52
2024/04/20 01:45:47;;;;;;;6.47;2.15;;;;;;;;;;5355728;26;20000;-51
2024/04/20 01:48:12;;;;;;;9.95;2.10;;;;;;;;;;5386303;26;20011;-51
2024/04/20 01:50:39;;;;;;;7.07;2.20;;;;;;;;;;5386632;26;20000;-51
2024/04/20 01:53:05;;;;;;;7.70;2.05;;;;;;;;;;5386782;26;20015;-52
2024/04/20 01:55:30;;;;;;;6.78;2.00;;;;;;;;;;5386980;26;20032;-51
2024/04/20 01:57:56;;;;;;;9.32;1.80;;;;;;;;;;5386564;26;19992;-52
2024/04/20 02:00:21;;;;;;;5.22;1.73;;;;;;;;;;5386374;26;20014;-51
2024/04/20 02:02:48;;;;;;;7.70;2.00;;;;;;;;;;5387070;26;19996;-52
2024/04/20 02:05:15;;;;;;;7.20;1.60;;;;;;;;;;5386489;26;19996;-51
2024/04/20 02:07:42;;;;;;;5.72;1.73;;;;;;;;;;5386654;26;20002;-51
2024/04/20 02:10:09;;;;;;;5.90;1.73;;;;;;;;;;5386820;26;20033;-52
2024/04/20 02:12:34;;;;;;;6.97;1.92;;;;;;;;;;5385782;26;20007;-52
2024/04/20 02:15:02;;;;;;;7.10;1.73;;;;;;;;;;5386280;26;19993;-51
2024/04/20 02:17:29;;;;;;;6.85;1.75;;;;;;;;;;5385967;26;20006;-52
2024/04/20 02:19:55;;;;;;;6.30;2.10;;;;;;;;;;5386013;26;20066;-51
2024/04/20 02:22:21;;;;;;;8.00;1.90;;;;;;;;;;5385661;26;20036;-51
2024/04/20 02:24:47;;;;;;;6.03;2.00;;;;;;;;;;5355972;26;20011;-54
2024/04/20 02:27:13;;;;;;;4.45;1.50;;;;;;;;;;5386356;26;19992;-51
2024/04/20 02:29:39;;;;;;;8.13;2.05;;;;;;;;;;5386539;26;20411;-51
2024/04/20 02:32:05;;;;;;;6.80;1.65;;;;;;;;;;5385961;26;20011;-50
2024/04/20 02:34:31;;;;;;;5.97;1.95;;;;;;;;;;5386059;26;20000;-51
2024/04/20 02:37:08;;;;;;;4.55;1.65;;;;;;;;;;5386098;26;19992;-51
2024/04/20 02:39:36;;;;;;;7.05;1.80;;;;;;;;;;5387264;26;20015;-54
2024/04/20 02:42:07;;;;;;;5.55;1.35;;;;;;;;;;5386404;26;20019;-50
2024/04/20 02:44:33;;;;;;;8.20;1.70;;;;;;;;;;5355294;26;19992;-52
2024/04/20 02:46:59;;;;;;;7.68;1.73;;;;;;;;;;5386137;26;19996;-54
2024/04/20 02:49:26;;;;;;;5.68;1.58;;;;;;;;;;5385735;26;20000;-51
2024/04/20 02:51:52;;;;;;;8.50;1.80;;;;;;;;;;5386087;26;20011;-52
2024/04/20 02:54:17;;;;;;;5.53;1.67;;;;;;;;;;5385664;26;20000;-51
2024/04/20 02:56:44;;;;;;;9.23;1.88;;;;;;;;;;5380523;26;20408;-52
2024/04/20 02:59:10;;;;;;;4.95;1.50;;;;;;;;;;5385644;26;20037;-51
2024/04/20 03:01:36;;;;;;;5.07;1.80;;;;;;;;;;5407026;21;20008;-86
2024/04/20 03:04:03;;;;;;;6.20;1.70;;;;;;;;;;5389663;26;20015;-86
2024/04/20 03:06:29;;;;;;;5.57;1.77;;;;;;;;;;5389921;26;20281;-86
2024/04/20 03:08:55;;;;;;;8.15;1.70;;;;;;;;;;5421079;26;20010;-86
2024/04/20 03:11:40;;;;;;;6.05;1.92;;;;;;;;;;5426963;26;19999;-86
2024/04/20 03:14:05;;;;;;;6.18;1.63;;;;;;;;;;5390143;26;20024;-86
2024/04/20 03:16:30;;;;;;;6.97;1.80;;;;;;;;;;5389740;26;19996;-86
2024/04/20 03:18:56;;;;;;;4.88;1.70;;;;;;;;;;5421304;26;20007;-86
2024/04/20 03:21:21;;;;;;;7.82;2.17;;;;;;;;;;5421431;26;19996;-86
2024/04/20 03:23:48;;;;;;;7.20;1.90;;;;;;;;;;5420946;26;20065;-85
2024/04/20 03:26:14;;;;;;;8.18;1.73;;;;;;;;;;5420948;26;20003;-85
2024/04/20 03:28:40;;;;;;;5.55;1.60;;;;;;;;;;5420853;26;20030;-85
2024/04/20 03:31:07;;;;;;;7.60;1.83;;;;;;;;;;5421027;26;20297;-85
2024/04/20 03:33:35;;;;;;;6.90;1.85;;;;;;;;;;5422107;26;20022;-85
2024/04/20 03:36:02;;;;;;;7.57;1.67;;;;;;;;;;5421109;26;19992;-85
2024/04/20 03:38:28;;;;;;;6.30;1.67;;;;;;;;;;5421451;26;20057;-85
2024/04/20 03:40:54;;;;;;;6.50;1.80;;;;;;;;;;5408618;26;20079;-85
2024/04/20 03:43:21;;;;;;;7.82;1.85;;;;;;;;;;5425302;26;20075;-85
2024/04/20 03:45:51;;;;;;;5.03;1.70;;;;;;;;;;5457148;26;20010;-85
2024/04/20 03:48:17;;;;;;;4.07;1.30;;;;;;;;;;5425989;26;19994;-85
2024/04/20 03:50:55;;;;;;;8.75;1.90;;;;;;;;;;5425516;26;20002;-85
2024/04/20 03:53:23;;;;;;;4.88;1.60;;;;;;;;;;5425314;26;19991;-85
2024/04/20 03:55:49;;;;;;;6.68;2.38;;;;;;;;;;5425474;26;19999;-86
2024/04/20 03:58:17;;;;;;;8.88;2.53;;;;;;;;;;5425599;26;20468;-86
2024/04/20 04:00:43;;;;;;;6.32;2.00;;;;;;;;;;5457108;26;20006;-86
2024/04/20 04:03:14;;;;;;;6.82;2.10;;;;;;;;;;5438983;21;20335;-51
2024/04/20 04:05:41;;;;;;;9.57;2.65;;;;;;;;;;5393145;26;20019;-51
2024/04/20 04:08:08;;;;;;;8.23;2.47;;;;;;;;;;5385213;26;20010;-51
2024/04/20 04:10:33;;;;;;;8.93;2.65;;;;;;;;;;5385187;26;20285;-52
2024/04/20 04:13:04;;;;;;;8.02;3.08;;;;;;;;;;5413258;26;20054;-50
2024/04/20 04:15:31;;;;;;;6.93;2.70;;;;;;;;;;5385245;26;20413;-51
2024/04/20 04:17:58;;;;;;;7.22;2.67;;;;;;;;;;5386893;26;20001;-52
2024/04/20 04:20:25;;;;;;;7.95;3.42;;;;;;;;;;5407479;26;20408;-51
2024/04/20 04:22:51;;;;;;;6.70;2.28;;;;;;;;;;5407665;26;20044;-52
2024/04/20 04:25:18;;;;;;;6.72;2.50;;;;;;;;;;5385927;26;20320;-51
2024/04/20 04:27:44;;;;;;;6.20;2.20;;;;;;;;;;5408059;26;20069;-52
2024/04/20 04:30:11;;;;;;;5.38;2.10;;;;;;;;;;5390029;26;19999;-51
2024/04/20 04:32:37;;;;;;;4.15;2.05;;;;;;;;;;5419617;26;20000;-51
2024/04/20 04:35:04;;;;;;;4.55;1.65;;;;;;;;;;5420566;26;20277;-50
2024/04/20 04:37:30;;;;;;;6.32;2.08;;;;;;;;;;5420309;26;20003;-51
2024/04/20 04:39:57;;;;;;;6.70;2.03;;;;;;;;;;5381099;26;20039;-52
2024/04/20 04:42:22;;;;;;;5.90;2.03;;;;;;;;;;5385592;26;20418;-51
2024/04/20 04:44:48;;;;;;;4.75;1.70;;;;;;;;;;5353903;26;19996;-54
2024/04/20 04:47:13;;;;;;;7.28;2.30;;;;;;;;;;5384849;26;20401;-51
2024/04/20 04:49:38;;;;;;;7.15;2.10;;;;;;;;;;5384871;26;20003;-53
2024/04/20 04:52:03;;;;;;;6.30;2.75;;;;;;;;;;5384729;26;19988;-54
2024/04/20 04:54:29;;;;;;;7.75;2.60;;;;;;;;;;5398089;26;20017;-51
2024/04/20 04:56:55;;;;;;;6.50;2.33;;;;;;;;;;5419961;26;20010;-55
2024/04/20 04:59:22;;;;;;;6.75;2.15;;;;;;;;;;5420438;26;20011;-52
2024/04/20 05:01:48;;;;;;;7.47;2.40;;;;;;;;;;5419756;26;20319;-52
2024/04/20 05:04:13;;;;;;;4.93;2.30;;;;;;;;;;5419983;26;19995;-50
2024/04/20 05:06:41;;;;;;;5.88;2.40;;;;;;;;;;5419357;26;20287;-51
2024/04/20 05:09:06;;;;;;;6.85;2.28;;;;;;;;;;5411148;26;20296;-55
2024/04/20 05:11:32;;;;;;;5.43;2.33;;;;;;;;;;5419778;26;20003;-52
2024/04/20 05:13:57;;;;;;;5.20;2.40;;;;;;;;;;5419002;26;20010;-52
2024/04/20 05:16:22;;;;;;;9.27;2.67;;;;;;;;;;5419660;26;19998;-50
2024/04/20 05:18:47;;;;;;;7.70;2.10;;;;;;;;;;5420920;26;19992;-50
2024/04/20 05:21:13;;;;;;;5.00;2.08;;;;;;;;;;5423164;26;19988;-52
2024/04/20 05:23:38;;;;;;;6.65;2.30;;;;;;;;;;5408594;26;20011;-51
2024/04/20 05:26:03;;;;;;;7.50;2.88;;;;;;;;;;5387849;26;19996;-52
2024/04/20 05:28:28;;;;;;;6.93;2.80;;;;;;;;;;5387571;26;19989;-55
2024/04/20 05:30:54;;;;;;;6.07;2.45;;;;;;;;;;5358612;26;20001;-54
2024/04/20 05:33:19;;;;;;;10.07;2.80;;;;;;;;;;5357008;26;19996;-52
2024/04/20 05:35:44;;;;;;;7.85;2.70;;;;;;;;;;5387368;26;20004;-54
2024/04/20 05:38:09;;;;;;;9.65;2.90;;;;;;;;;;5409340;26;20065;-53
2024/04/20 05:40:37;;;;;;;9.05;3.35;;;;;;;;;;5422462;26;20007;-51
2024/04/20 05:43:03;;;;;;;8.25;3.15;;;;;;;;;;5422609;26;20011;-52
2024/04/20 05:45:28;;;;;;;9.70;3.00;;;;;;;;;;5422854;26;19999;-52
2024/04/20 05:47:53;;;;;;;8.55;2.70;;;;;;;;;;5422881;26;20008;-53
2024/04/20 05:50:18;;;;;;;10.48;3.20;;;;;;;;;;5422787;26;20400;-51
2024/04/20 05:52:43;;;;;;;7.70;3.00;;;;;;;;;;5396175;26;20000;-51
2024/04/20 05:55:09;;;;;;;12.02;3.80;;;;;;;;;;5388393;26;19996;-54
2024/04/20 05:57:34;;;;;;;8.57;2.92;;;;;;;;;;5386559;26;19996;-52
2024/04/20 06:00:00;;;;;;;8.02;2.70;;;;;;;;;;5386152;26;20000;-51
2024/04/20 06:02:27;;;;;;;9.13;3.25;;;;;;;;;;5385599;26;20405;-52
2024/04/20 06:04:53;;;;;;;8.93;3.45;;;;;;;;;;5387091;26;20016;-52
2024/04/20 06:07:19;;;;;;;8.88;2.60;;;;;;;;;;5387756;26;20000;-54
2024/04/20 06:09:44;;;;;;;10.73;3.42;;;;;;;;;;5386907;26;20007;-56
2024/04/20 06:12:10;;;;;;;7.97;3.20;;;;;;;;;;5387060;26;20066;-53
2024/04/20 06:14:35;;;;;;;11.57;4.32;;;;;;;;;;5387012;26;20010;-51
2024/04/20 06:17:01;;;;;;;7.68;3.28;;;;;;;;;;5387018;26;19992;-52
2024/04/20 06:19:26;;;;;;;7.80;3.30;;;;;;;;;;5386740;26;20002;-51
2024/04/20 06:21:51;;;;;;;10.35;3.88;;;;;;;;;;5389469;26;20011;-51
2024/04/20 06:24:17;;;;;;;10.75;3.42;;;;;;;;;;5387422;26;20409;-52
2024/04/20 06:26:42;;;;;;;13.20;4.07;;;;;;;;;;5385929;26;20413;-51
2024/04/20 06:29:07;;;;;;;10.27;3.40;;;;;;;;;;5386180;26;20000;-52
2024/04/20 06:31:32;;;;;;;9.00;3.78;;;;;;;;;;5386432;26;20320;-52
2024/04/20 06:33:58;;;;;;;11.38;3.97;;;;;;;;;;5386750;26;19988;-52
2024/04/20 06:36:23;;;;;;;10.45;3.50;;;;;;;;;;5407290;26;20061;-52
2024/04/20 06:38:51;;;;;;;7.85;2.83;;;;;;;;;;5422256;26;19992;-55
2024/04/20 06:41:16;;;;;;;7.25;2.75;;;;;;;;;;5422048;26;20003;-56
2024/04/20 06:43:41;;;;;;;9.25;2.40;;;;;;;;;;5421906;26;20038;-53
2024/04/20 06:46:08;;;;;;;9.38;2.40;;;;;;;;;;5422443;26;20010;-52
2024/04/20 06:48:35;;;;;;;7.28;2.60;;;;;;;;;;5422164;26;20011;-52
2024/04/20 06:51:00;;;;;;;8.95;2.72;;;;;;;;;;5415264;26;20007;-52
2024/04/20 06:53:25;;;;;;;9.85;2.95;;;;;;;;;;5422287;26;20004;-55
2024/04/20 06:55:59;;;;;;;7.70;2.50;;;;;;;;;;5422570;26;20070;-52
2024/04/20 06:58:26;;;;;;;6.88;2.08;;;;;;;;;;5422077;26;19999;-56
2024/04/20 07:00:51;;;;;;;9.73;2.40;;;;;;;;;;5421688;26;19996;-51
2024/04/20 07:03:16;;;;;;;10.27;3.33;;;;;;;;;;5415174;26;20011;-53
2024/04/20 07:05:49;;;;;;;11.45;3.17;;;;;;;;;;5387741;26;20018;-52
2024/04/20 07:08:15;;;;;;;9.15;3.65;;;;;;;;;;5386097;26;20008;-54
2024/04/20 07:10:40;;;;;;;7.82;3.40;;;;;;;;;;5386513;26;20448;-52
2024/04/20 07:13:05;;;;;;;9.63;3.22;;;;;;;;;;5386754;26;20004;-52
2024/04/20 07:15:30;;;;;;;9.85;3.00;;;;;;;;;;5386472;26;20087;-53
2024/04/20 07:17:55;;;;;;;9.95;3.20;;;;;;;;;;5387963;26;19992;-53
2024/04/20 07:20:21;;;;;;;8.00;2.58;;;;;;;;;;5421646;26;19991;-52
2024/04/20 07:22:46;;;;;;;7.22;3.33;;;;;;;;;;5421893;26;20285;-53
2024/04/20 07:25:11;;;;;;;10.05;3.45;;;;;;;;;;5405627;26;20058;-52
2024/04/20 07:27:37;;;;;;;8.10;2.80;;;;;;;;;;5387105;26;19996;-54
2024/04/20 07:30:02;;;;;;;13.88;3.28;;;;;;;;;;5386055;26;19992;-51
2024/04/20 07:32:27;;;;;;;11.18;3.42;;;;;;;;;;5392772;26;19991;-55
2024/04/20 07:34:52;;;;;;;12.45;3.95;;;;;;;;;;5386314;26;20001;-52
2024/04/20 07:37:18;;;;;;;11.18;3.33;;;;;;;;;;5385351;26;20002;-52
2024/04/20 07:39:43;;;;;;;15.30;4.05;;;;;;;;;;5385681;26;19996;-53
2024/04/20 07:42:08;;;;;;;9.77;3.60;;;;;;;;;;5397336;26;19996;-55
2024/04/20 07:44:33;;;;;;;9.23;3.50;;;;;;;;;;5389625;26;20309;-53
2024/04/20 07:46:59;;;;;;;11.23;4.18;;;;;;;;;;5414879;26;20007;-51
2024/04/20 07:49:24;;;;;;;11.98;3.85;;;;;;;;;;5385221;26;20301;-52
2024/04/20 07:51:50;;;;;;;8.73;3.13;;;;;;;;;;5385443;26;19992;-51
2024/04/20 07:54:19;;;;;;;14.27;3.58;;;;;;;;;;5385006;26;19992;-52
2024/04/20 07:56:44;;;;;;;9.95;3.55;;;;;;;;;;5410113;26;20111;-52
2024/04/20 07:59:09;;;;;;;13.75;3.70;;;;;;;;;;5421227;26;19999;-53
2024/04/20 08:01:34;;;;;;;10.73;4.07;;;;;;;;;;5406333;26;19996;-52
2024/04/20 08:03:59;;;;;;;13.30;4.88;;;;;;;;;;5383651;26;19988;-51
2024/04/20 08:06:25;;;;;;;10.35;3.75;;;;;;;;;;5385239;26;19989;-53
2024/04/20 08:08:50;;;;;;;9.18;3.35;;;;;;;;;;5385034;26;19988;-53
2024/04/20 08:11:17;;;;;;;10.77;3.42;;;;;;;;;;5385473;26;19992;-55
2024/04/20 08:13:42;;;;;;;11.20;3.42;;;;;;;;;;5354814;26;20007;-52
2024/04/20 08:16:07;;;;;;;8.93;3.60;;;;;;;;;;5374173;26;20073;-52
2024/04/20 08:18:32;;;;;;;12.88;3.80;;;;;;;;;;5420344;26;19999;-52
2024/04/20 08:20:57;;;;;;;8.70;3.22;;;;;;;;;;5420890;26;20000;-53
2024/04/20 08:23:23;;;;;;;11.13;3.95;;;;;;;;;;5420738;26;20398;-53
2024/04/20 08:25:48;;;;;;;10.45;3.90;;;;;;;;;;5400869;26;20078;-54
2024/04/20 08:28:13;;;;;;;10.38;3.88;;;;;;;;;;5385173;26;20306;-52
2024/04/20 08:30:41;;;;;;;11.00;3.67;;;;;;;;;;5414527;26;20000;-52
2024/04/20 08:33:06;;;;;;;11.07;3.90;;;;;;;;;;5399375;26;20000;-52
2024/04/20 08:35:31;;;;;;;12.25;3.25;;;;;;;;;;5384757;26;20002;-54
2024/04/20 08:37:56;;;;;;;9.82;3.10;;;;;;;;;;5384787;26;19992;-54
2024/04/20 08:40:22;;;;;;;10.95;3.35;;;;;;;;;;5353642;26;20360;-51
2024/04/20 08:42:49;;;;;;;9.23;3.35;;;;;;;;;;5385088;26;19989;-51
2024/04/20 08:45:19;;;;;;;11.60;3.35;;;;;;;;;;5418027;26;20003;-55
2024/04/20 08:47:45;;;;;;;14.27;4.95;;;;;;;;;;5364370;26;19996;-52
2024/04/20 08:50:11;;;;;;;13.80;5.43;;;;;;;;;;5385194;26;20010;-52
2024/04/20 08:52:37;;;;;;;11.85;4.78;;;;;;;;;;5384233;26;19992;-55
2024/04/20 08:55:04;;;;;;;11.07;4.43;;;;;;;;;;5384116;26;20004;-52
2024/04/20 08:57:35;;;;;;;12.60;4.97;;;;;;;;;;5390292;26;20094;-52
2024/04/20 09:00:01;;;;;;;;;;;;;;;;;;5420585;26;20296;-52
2024/04/20 09:02:26;;;;;;;10.82;4.25;;;;;;;;;;5418841;26;19958;-53
2024/04/20 09:04:54;;;;;;;10.38;4.00;;;;;;;;;;5419281;26;20346;-51
2024/04/20 09:07:20;;;;;;;12.65;4.45;;;;;;;;;;5388292;26;20004;-54
2024/04/20 09:09:46;;;;;;;9.82;3.88;;;;;;;;;;5385200;26;20008;-53
2024/04/20 09:12:11;;;;;;;10.60;3.72;;;;;;;;;;5398385;26;19996;-52
2024/04/20 09:14:36;;;;;;;12.80;3.85;;;;;;;;;;5419890;26;19995;-52
2024/04/20 09:17:01;;;;;;;7.93;3.22;;;;;;;;;;5419771;26;19987;-51
2024/04/20 09:19:26;;;;;;;7.53;3.30;;;;;;;;;;5419293;26;20300;-51
2024/04/20 09:21:52;;;;;;;8.77;2.90;;;;;;;;;;5419308;26;19999;-51
2024/04/20 09:24:17;;;;;;;7.38;2.58;;;;;;;;;;5419335;26;19996;-54
2024/04/20 09:26:52;;;;;;;8.55;2.63;;;;;;;;;;5410337;26;19996;-52
2024/04/20 09:29:18;;;;;;;8.63;2.92;;;;;;;;;;5384231;26;20007;-53
2024/04/20 09:31:49;;;;;;;9.40;2.75;;;;;;;;;;5384252;26;20356;-51
2024/04/20 09:34:15;;;;;;;8.75;2.47;;;;;;;;;;5384190;26;20413;-53
2024/04/20 09:36:41;;;;;;;8.63;2.63;;;;;;;;;;5384336;26;20000;-52
2024/04/20 09:39:07;;;;;;;11.15;2.85;;;;;;;;;;5384273;26;20013;-53
2024/04/20 09:41:32;;;;;;;16.00;2.78;;;;;;;;;;5384868;26;20000;-52
2024/04/20 09:44:02;;;;;;;13.15;3.22;;;;;;;;;;5403681;26;20293;-53
2024/04/20 09:46:29;;;;;;;9.30;3.00;;;;;;;;;;5403385;26;20007;-53
2024/04/20 09:48:55;;;;;;;16.52;3.17;;;;;;;;;;5389960;26;19999;-55
2024/04/20 09:51:23;;;;;;;11.02;2.80;;;;;;;;;;5419201;26;19996;-55
2024/04/20 09:53:55;;;;;;;9.68;2.60;;;;;;;;;;5406114;26;20040;-55
2024/04/20 09:56:21;;;;;;;12.23;3.22;;;;;;;;;;5383484;26;19992;-53
2024/04/20 09:58:47;;;;;;;12.27;2.95;;;;;;;;;;5383869;26;20003;-51
2024/04/20 10:01:12;;;;;;;9.63;2.70;;;;;;;;;;5394452;26;20008;-52
2024/04/20 10:03:38;;;;;;;7.50;2.05;;;;;;;;;;5418086;26;19991;-55
2024/04/20 10:06:04;;;;;;;9.60;2.65;;;;;;;;;;5421843;26;20412;-51
2024/04/20 10:08:29;;;;;;;10.10;2.85;;;;;;;;;;5408349;26;20000;-57
2024/04/20 10:10:55;;;;;;;8.30;2.45;;;;;;;;;;5398403;26;19995;-52
2024/04/20 10:13:21;;;;;;;10.40;3.03;;;;;;;;;;5422236;26;20005;-52
2024/04/20 10:15:47;;;;;;;11.60;3.97;;;;;;;;;;5422947;26;20281;-53
2024/04/20 10:18:13;;;;;;;11.40;3.30;;;;;;;;;;5390355;26;20013;-55
2024/04/20 10:20:38;;;;;;;11.32;2.75;;;;;;;;;;5422207;26;20018;-53
2024/04/20 10:23:16;;;;;;;12.10;2.65;;;;;;;;;;5404982;26;20004;-53
2024/04/20 10:25:43;;;;;;;10.95;2.85;;;;;;;;;;5387055;26;20070;-53
2024/04/20 10:28:09;;;;;;;11.32;2.90;;;;;;;;;;5414829;26;19992;-55
2024/04/20 10:30:34;;;;;;;10.40;2.97;;;;;;;;;;5387127;26;20394;-54
2024/04/20 10:33:03;;;;;;;13.32;2.75;;;;;;;;;;5387840;26;20079;-52
2024/04/20 10:35:28;;;;;;;8.82;2.65;;;;;;;;;;5422033;26;20010;-53
2024/04/20 10:37:58;;;;;;;8.15;2.40;;;;;;;;;;5411095;26;20001;-55
2024/04/20 10:40:27;;;;;;;4.70;1.30;;;;;;;;;;5386651;26;19996;-53
2024/04/20 10:42:52;;;;;;;4.05;1.17;;;;;;;;;;5386321;26;20413;-53
2024/04/20 10:45:20;;;;;;;2.67;0.90;;;;;;;;;;5387683;26;19996;-53
2024/04/20 10:47:45;;;;;;;3.70;1.10;;;;;;;;;;5416491;26;20014;-55
2024/04/20 10:50:11;;;;;;;1.98;1.00;;;;;;;;;;5417503;26;19992;-52
2024/04/20 10:52:36;;;;;;;3.38;1.10;;;;;;;;;;5393942;26;20015;-52
2024/04/20 10:55:09;;;;;;;2.10;0.93;;;;;;;;;;5423077;26;19998;-54
2024/04/20 10:57:35;;;;;;;3.65;1.15;;;;;;;;;;5386590;26;19992;-54
2024/04/20 11:00:00;;;;;;;4.60;1.27;;;;;;;;;;5385471;26;20006;-54
2024/04/20 11:02:26;;;;;;;4.05;1.42;;;;;;;;;;5385550;26;19998;-52
2024/04/20 11:04:51;;;;;;;5.30;1.40;;;;;;;;;;5389708;26;20005;-52
2024/04/20 11:07:18;;;;;;;6.25;1.70;;;;;;;;;;5386277;26;20397;-56
2024/04/20 11:09:45;;;;;;;8.02;1.83;;;;;;;;;;5395077;26;19996;-53
2024/04/20 11:12:12;;;;;;;5.97;1.40;;;;;;;;;;5421787;26;19992;-56
2024/04/20 11:14:37;;;;;;;6.18;1.52;;;;;;;;;;5422031;26;20002;-52
2024/04/20 11:17:02;;;;;;;7.45;1.75;;;;;;;;;;5420807;26;20420;-51
2024/04/20 11:19:32;;;;;;;7.95;1.70;;;;;;;;;;5421029;26;19992;-55
2024/04/20 11:21:58;;;;;;;8.70;1.95;;;;;;;;;;5421580;26;20292;-52
2024/04/20 11:24:23;;;;;;;6.82;1.88;;;;;;;;;;5422075;26;20004;-52
2024/04/20 11:26:58;;;;;;;7.93;1.83;;;;;;;;;;5421457;26;19999;-55
2024/04/20 11:29:23;;;;;;;5.53;1.80;;;;;;;;;;5421864;26;20049;-55
2024/04/20 11:31:58;;;;;;;8.52;1.70;;;;;;;;;;5421553;26;19987;-54
2024/04/20 11:34:23;;;;;;;9.13;1.75;;;;;;;;;;5392826;26;20019;-52
2024/04/20 11:36:48;;;;;;;6.18;1.77;;;;;;;;;;5385560;26;20293;-53
2024/04/20 11:39:14;;;;;;;7.38;1.70;;;;;;;;;;5385743;26;20405;-55
2024/04/20 11:41:39;;;;;;;9.48;1.83;;;;;;;;;;5385578;26;19992;-54
2024/04/20 11:44:04;;;;;;;7.25;2.03;;;;;;;;;;5412726;26;19999;-56
2024/04/20 11:46:30;;;;;;;7.95;1.80;;;;;;;;;;5420590;26;20010;-56
2024/04/20 11:48:55;;;;;;;5.95;1.70;;;;;;;;;;5421185;26;19995;-56
2024/04/20 11:54:21;;;;;;;6.18;1.70;;;;;;;;;;5404830;26;20010;-54
2024/04/20 11:56:47;;;;;;;6.72;1.92;;;;;;;;;;5390847;26;20004;-53
2024/04/20 11:59:13;;;;;;;5.70;1.45;;;;;;;;;;5420531;26;20009;-55
2024/04/20 12:01:38;;;;;;;7.85;2.03;;;;;;;;;;5419277;26;20003;-54
2024/04/20 12:04:05;;;;;;;6.13;1.65;;;;;;;;;;5418774;26;20000;-57
2024/04/20 12:06:31;;;;;;;5.90;1.73;;;;;;;;;;5389973;26;20000;-58
2024/04/20 12:08:56;;;;;;;10.10;1.92;;;;;;;;;;5420985;26;20065;-57
2024/04/20 12:11:21;;;;;;;6.00;1.73;;;;;;;;;;5408820;26;19996;-58
2024/04/20 12:13:46;;;;;;;7.45;1.83;;;;;;;;;;5373027;26;20036;-57
2024/04/20 12:16:12;;;;;;;7.82;1.98;;;;;;;;;;5420413;26;20060;-51
2024/04/20 12:18:37;;;;;;;6.72;1.90;;;;;;;;;;5420688;26;19991;-52
2024/04/20 12:21:02;;;;;;;9.10;2.67;;;;;;;;;;5400249;26;20429;-50
2024/04/20 12:23:28;;;;;;;8.15;3.20;;;;;;;;;;5354514;26;20008;-54
2024/04/20 12:25:53;;;;;;;3.80;1.48;;;;;;;;;;5385441;26;20418;-55
2024/04/20 12:28:18;;;;;;;4.60;1.80;;;;;;;;;;5387427;26;20003;-55
2024/04/20 12:30:44;;;;;;;4.80;1.70;;;;;;;;;;5384943;26;20419;-52
2024/04/20 12:33:10;;;;;;;4.63;1.50;;;;;;;;;;5385129;26;20471;-54
2024/04/20 12:35:35;;;;;;;5.15;1.63;;;;;;;;;;5385161;26;20360;-58
2024/04/20 12:38:01;;;;;;;5.47;1.65;;;;;;;;;;5385221;26;20000;-53
2024/04/20 12:40:26;;;;;;;5.78;1.63;;;;;;;;;;5385290;26;19996;-55
2024/04/20 12:42:51;;;;;;;4.80;1.50;;;;;;;;;;5408433;26;20074;-55
2024/04/20 12:45:17;;;;;;;3.70;1.40;;;;;;;;;;5420666;26;20009;-55
2024/04/20 12:47:46;;;;;;;5.30;1.63;;;;;;;;;;5387273;26;20003;-52
2024/04/20 12:50:11;;;;;;;5.82;1.42;;;;;;;;;;5385379;26;20289;-56
2024/04/20 12:52:37;;;;;;;3.85;1.40;;;;;;;;;;5384708;26;20000;-56
2024/04/20 12:55:03;;;;;;;4.75;1.48;;;;;;;;;;5388123;26;20003;-56
2024/04/20 12:57:29;;;;;;;4.53;1.48;;;;;;;;;;5408497;26;20054;-53
2024/04/20 12:59:54;;;;;;;5.15;1.50;;;;;;;;;;5420415;26;20008;-55
2024/04/20 13:02:19;;;;;;;6.05;1.90;;;;;;;;;;5390324;26;20263;-55
2024/04/20 13:04:45;;;;;;;8.55;2.13;;;;;;;;;;5385454;26;19993;-52
2024/04/20 13:07:10;;;;;;;6.50;1.73;;;;;;;;;;5384471;26;20007;-56
2024/04/20 13:09:36;;;;;;;5.10;1.52;;;;;;;;;;5385652;26;20487;-52
2024/04/20 13:12:01;;;;;;;4.95;1.30;;;;;;;;;;5419926;26;19992;-54
2024/04/20 13:14:27;;;;;;;4.55;1.60;;;;;;;;;;5419771;26;19998;-52
2024/04/20 13:16:52;;;;;;;6.00;1.67;;;;;;;;;;5401623;26;20071;-52
2024/04/20 13:19:19;;;;;;;6.70;1.80;;;;;;;;;;5385007;26;19996;-55
2024/04/20 13:21:45;;;;;;;5.25;1.83;;;;;;;;;;5384434;26;20336;-53
2024/04/20 13:24:10;;;;;;;3.60;1.30;;;;;;;;;;5391890;26;20010;-51
2024/04/20 13:26:35;;;;;;;3.38;1.05;;;;;;;;;;5419422;26;20411;-51
2024/04/20 13:29:00;;;;;;;3.17;1.02;;;;;;;;;;5388915;26;20432;-52
2024/04/20 13:31:26;;;;;;;3.17;1.35;;;;;;;;;;5384282;26;19988;-53
2024/04/20 13:33:54;;;;;;;3.80;1.10;;;;;;;;;;5384056;26;20033;-53
2024/04/20 13:36:19;;;;;;;2.88;1.00;;;;;;;;;;5383892;26;20007;-54
2024/04/20 13:38:44;;;;;;;4.55;2.20;;;;;;;;;;5398701;26;20000;-55
2024/04/20 13:41:10;;;;;;;4.32;1.80;;;;;;;;;;5422453;26;20000;-53
2024/04/20 13:43:35;;;;;;;3.25;1.10;;;;;;;;;;5422923;26;19987;-51
2024/04/20 13:46:09;;;;;;;3.58;1.35;;;;;;;;;;5422357;26;20000;-52
2024/04/20 13:48:34;;;;;;;3.63;1.33;;;;;;;;;;5391183;26;20003;-53
2024/04/20 13:50:59;;;;;;;5.10;1.63;;;;;;;;;;5401206;26;20464;-51
2024/04/20 13:53:24;;;;;;;6.38;1.42;;;;;;;;;;5390053;26;20097;-51
2024/04/20 13:55:53;;;;;;;5.50;1.50;;;;;;;;;;5387524;26;20064;-53
2024/04/20 13:58:18;;;;;;;7.30;1.67;;;;;;;;;;5387199;26;20357;-53
2024/04/20 14:00:44;;;;;;;7.53;2.38;;;;;;;;;;5374444;26;20007;-55
2024/04/20 14:03:09;;;;;;;5.38;1.85;;;;;;;;;;5422302;26;20016;-56
2024/04/20 14:05:34;;;;;;;6.95;1.60;;;;;;;;;;5393758;26;19992;-52
2024/04/20 14:07:59;;;;;;;6.28;1.98;;;;;;;;;;5417960;26;20396;-52
2024/04/20 14:10:24;;;;;;;5.65;1.88;;;;;;;;;;5422422;26;20007;-54
2024/04/20 14:12:50;;;;;;;8.80;3.15;;;;;;;;;;5422555;26;20061;-52
2024/04/20 14:15:15;;;;;;;8.80;3.05;;;;;;;;;;5422240;26;20320;-52
2024/04/20 14:17:40;;;;;;;8.57;3.00;;;;;;;;;;5366397;26;20285;-52
2024/04/20 14:20:08;;;;;;;8.23;3.05;;;;;;;;;;5387006;26;19996;-51
2024/04/20 14:22:33;;;;;;;10.05;3.03;;;;;;;;;;5422831;26;20011;-54
2024/04/20 14:24:58;;;;;;;5.88;2.50;;;;;;;;;;5422691;26;19988;-53
2024/04/20 14:27:23;;;;;;;6.85;1.98;;;;;;;;;;5422367;26;19995;-53
2024/04/20 14:29:49;;;;;;;5.25;1.88;;;;;;;;;;5422085;26;20077;-54
2024/04/20 14:32:14;;;;;;;8.48;2.00;;;;;;;;;;5422410;26;20393;-55
2024/04/20 14:34:40;;;;;;;5.45;1.65;;;;;;;;;;5415137;26;20000;-53
2024/04/20 14:37:06;;;;;;;6.25;1.95;;;;;;;;;;5387349;26;20022;-54